Fort Yukon Airport Fort Yukon US
ICAO: PFYU
IATA:
Category: Medium
Scheduled Services:

Elevation: 433 ft
TransAlt. 18000 ft.

Airport Communications:
AWOS 3:125.8
ANCHORAGE CNTR:135
CTAF:122.5
FAIRBANKS RDO:122.1
EIELSON RANGE CON:125.3
TWEB:114.4

PFYU Zoom In..

Runways:

(A) RW 04 length 5000 ft width 100 ft
---- / hdg 35

(B) RW 22 length 5000 ft width 100 ft
---- / hdg 215

Location; PFYU
Day. 17 / Time. 06.56 Zulu
* Altimeter: 29.80
* Temperature: 13° c. 55.4°f.
* Wind from: 240° Speed 10 kn with Gusts up to 16 kn.
Dewpoint: 06° c.
Visibility: 10 Statute Miles.
Clouds: Few 7500 ft.
Clouds: Scattered 9500 ft.

PFYU 170656Z AUTO 24010G16KT 10SM FEW075 SCT095 13/06 A2980 RMK AO2 SLP111 T01280061


Wind From 240°
Speed 10 kn.

 
 
jpsmedia.com for Web Design worldairports.se 2018   terms of use